sensor_id;sensor_type;location;lat;lon;timestamp;pressure;altitude;pressure_sealevel;temperature;humidity
37852;BME280;23691;52.486;4.650;2023-07-31T00:02:53;100875.59;;;20.67;73.21
37852;BME280;23691;52.486;4.650;2023-07-31T00:05:26;100873.72;;;20.49;73.43
37852;BME280;23691;52.486;4.650;2023-07-31T00:12:33;100872.28;;;20.46;73.60
37852;BME280;23691;52.486;4.650;2023-07-31T00:19:54;100860.22;;;20.42;73.85
37852;BME280;23691;52.486;4.650;2023-07-31T00:28:53;100845.19;;;20.40;74.59
37852;BME280;23691;52.486;4.650;2023-07-31T00:54:34;100839.41;;;20.36;76.24
37852;BME280;23691;52.486;4.650;2023-07-31T00:57:28;100837.66;;;20.42;75.81
37852;BME280;23691;52.486;4.650;2023-07-31T01:03:24;100830.03;;;20.32;76.55
37852;BME280;23691;52.486;4.650;2023-07-31T01:23:49;100810.13;;;20.38;75.71
37852;BME280;23691;52.486;4.650;2023-07-31T01:30:32;100817.56;;;20.43;75.41
37852;BME280;23691;52.486;4.650;2023-07-31T01:33:31;100808.59;;;20.42;75.35
37852;BME280;23691;52.486;4.650;2023-07-31T01:36:36;100802.31;;;20.42;75.50
37852;BME280;23691;52.486;4.650;2023-07-31T01:43:40;100787.19;;;20.34;75.80
37852;BME280;23691;52.486;4.650;2023-07-31T01:49:24;100793.22;;;20.36;75.90
37852;BME280;23691;52.486;4.650;2023-07-31T01:52:21;100779.16;;;20.39;75.48
37852;BME280;23691;52.486;4.650;2023-07-31T01:55:39;100778.94;;;20.41;75.66
37852;BME280;23691;52.486;4.650;2023-07-31T02:01:08;100776.22;;;20.41;75.31
37852;BME280;23691;52.486;4.650;2023-07-31T02:11:00;100766.88;;;20.36;75.16
37852;BME280;23691;52.486;4.650;2023-07-31T02:13:35;100773.13;;;20.37;74.43
37852;BME280;23691;52.486;4.650;2023-07-31T02:16:03;100774.81;;;20.38;74.36
37852;BME280;23691;52.486;4.650;2023-07-31T02:18:45;100768.63;;;20.31;74.50
37852;BME280;23691;52.486;4.650;2023-07-31T02:21:18;100743.50;;;20.35;74.64
37852;BME280;23691;52.486;4.650;2023-07-31T02:23:56;100752.81;;;20.40;74.04
37852;BME280;23691;52.486;4.650;2023-07-31T02:27:10;100767.63;;;20.25;74.60
37852;BME280;23691;52.486;4.650;2023-07-31T02:29:42;100754.91;;;20.26;74.37
37852;BME280;23691;52.486;4.650;2023-07-31T02:32:07;100743.78;;;20.27;74.21
37852;BME280;23691;52.486;4.650;2023-07-31T02:34:58;100739.69;;;20.36;73.64
37852;BME280;23691;52.486;4.650;2023-07-31T02:41:01;100745.69;;;20.27;73.96
37852;BME280;23691;52.486;4.650;2023-07-31T02:43:33;100740.03;;;20.28;74.09
37852;BME280;23691;52.486;4.650;2023-07-31T02:46:22;100740.03;;;20.28;74.21
37852;BME280;23691;52.486;4.650;2023-07-31T02:49:08;100745.69;;;20.27;74.82
37852;BME280;23691;52.486;4.650;2023-07-31T02:51:34;100740.03;;;20.28;74.02
37852;BME280;23691;52.486;4.650;2023-07-31T02:54:30;100749.38;;;20.32;74.22
37852;BME280;23691;52.486;4.650;2023-07-31T02:57:25;100731.63;;;20.30;73.93
37852;BME280;23691;52.486;4.650;2023-07-31T03:00:21;100728.31;;;20.28;74.09
37852;BME280;23691;52.486;4.650;2023-07-31T03:03:10;100725.16;;;20.31;74.18
37852;BME280;23691;52.486;4.650;2023-07-31T03:06:14;100742.88;;;20.33;73.62
37852;BME280;23691;52.486;4.650;2023-07-31T03:08:40;100723.81;;;20.22;73.96
37852;BME280;23691;52.486;4.650;2023-07-31T03:11:18;100712.03;;;20.28;73.96
37852;BME280;23691;52.486;4.650;2023-07-31T03:13:44;100722.53;;;20.24;73.91
37852;BME280;23691;52.486;4.650;2023-07-31T03:22:22;100723.22;;;20.20;74.02
37852;BME280;23691;52.486;4.650;2023-07-31T03:26:00;100721.59;;;20.19;73.71
37852;BME280;23691;52.486;4.650;2023-07-31T03:28:51;100712.56;;;20.18;73.90
37852;BME280;23691;52.486;4.650;2023-07-31T03:32:02;100716.38;;;20.17;73.65
37852;BME280;23691;52.486;4.650;2023-07-31T03:34:33;100704.16;;;20.08;74.19
37852;BME280;23691;52.486;4.650;2023-07-31T03:38:04;100706.78;;;20.14;73.92
37852;BME280;23691;52.486;4.650;2023-07-31T03:41:14;100707.88;;;20.13;74.19
37852;BME280;23691;52.486;4.650;2023-07-31T03:44:10;100696.41;;;20.11;74.63
37852;BME280;23691;52.486;4.650;2023-07-31T03:46:55;100696.16;;;20.13;74.89
37852;BME280;23691;52.486;4.650;2023-07-31T03:50:13;100682.94;;;20.16;74.67
37852;BME280;23691;52.486;4.650;2023-07-31T03:52:59;100672.78;;;20.12;75.19
37852;BME280;23691;52.486;4.650;2023-07-31T03:55:54;100680.94;;;20.12;74.88
37852;BME280;23691;52.486;4.650;2023-07-31T03:58:27;100674.19;;;20.14;75.00
37852;BME280;23691;52.486;4.650;2023-07-31T04:01:12;100675.28;;;20.13;74.91
37852;BME280;23691;52.486;4.650;2023-07-31T04:04:04;100674.06;;;20.09;75.50
37852;BME280;23691;52.486;4.650;2023-07-31T04:06:36;100679.28;;;20.11;75.37
37852;BME280;23691;52.486;4.650;2023-07-31T04:12:38;100672.19;;;20.10;75.27
37852;BME280;23691;52.486;4.650;2023-07-31T04:15:22;100669.84;;;20.13;75.01
37852;BME280;23691;52.486;4.650;2023-07-31T04:18:01;100662.75;;;20.12;75.34
37852;BME280;23691;52.486;4.650;2023-07-31T04:20:40;100649.75;;;20.14;74.99
37852;BME280;23691;52.486;4.650;2023-07-31T04:23:16;100647.53;;;20.11;75.61
37852;BME280;23691;52.486;4.650;2023-07-31T04:25:44;100642.44;;;20.15;75.22
37852;BME280;23691;52.486;4.650;2023-07-31T04:28:28;100644.56;;;20.13;75.36
37852;BME280;23691;52.486;4.650;2023-07-31T04:31:12;100642.69;;;20.13;75.10
37852;BME280;23691;52.486;4.650;2023-07-31T04:34:12;100653.56;;;20.13;75.39
37852;BME280;23691;52.486;4.650;2023-07-31T04:40:34;100643.00;;;20.05;76.04
37852;BME280;23691;52.486;4.650;2023-07-31T04:43:32;100636.28;;;20.08;75.97
37852;BME280;23691;52.486;4.650;2023-07-31T04:46:30;100641.09;;;20.06;76.19
37852;BME280;23691;52.486;4.650;2023-07-31T04:50:19;100635.91;;;20.04;76.10
37852;BME280;23691;52.486;4.650;2023-07-31T04:52:56;100636.00;;;19.98;76.97
37852;BME280;23691;52.486;4.650;2023-07-31T04:55:55;100624.47;;;20.02;76.41
37852;BME280;23691;52.486;4.650;2023-07-31T04:58:53;100619.38;;;20.06;77.05
37852;BME280;23691;52.486;4.650;2023-07-31T05:01:31;100623.16;;;20.05;77.36
37852;BME280;23691;52.486;4.650;2023-07-31T05:07:45;100612.53;;;20.03;77.79
37852;BME280;23691;52.486;4.650;2023-07-31T05:10:13;100612.22;;;20.11;77.71
37852;BME280;23691;52.486;4.650;2023-07-31T05:12:39;100600.06;;;20.14;77.82
37852;BME280;23691;52.486;4.650;2023-07-31T05:22:56;100593.41;;;19.98;78.97
37852;BME280;23691;52.486;4.650;2023-07-31T05:25:27;100588.47;;;20.07;78.62
37852;BME280;23691;52.486;4.650;2023-07-31T05:27:56;100576.31;;;20.09;78.66
37852;BME280;23691;52.486;4.650;2023-07-31T05:37:04;100568.88;;;20.16;78.95
37852;BME280;23691;52.486;4.650;2023-07-31T05:40:11;100575.84;;;20.24;78.73
37852;BME280;23691;52.486;4.650;2023-07-31T05:42:44;100578.22;;;20.21;79.25
37852;BME280;23691;52.486;4.650;2023-07-31T05:45:43;100582.09;;;20.25;79.09
37852;BME280;23691;52.486;4.650;2023-07-31T05:55:42;100574.88;;;20.07;80.33
37852;BME280;23691;52.486;4.650;2023-07-31T05:58:09;100574.41;;;20.10;80.36
37852;BME280;23691;52.486;4.650;2023-07-31T06:11:18;100549.88;;;20.28;80.03
37852;BME280;23691;52.486;4.650;2023-07-31T06:14:23;100551.53;;;20.29;80.05
37852;BME280;23691;52.486;4.650;2023-07-31T06:17:35;100549.53;;;20.36;80.43
37852;BME280;23691;52.486;4.650;2023-07-31T06:20:06;100550.34;;;20.49;80.29
37852;BME280;23691;52.486;4.650;2023-07-31T06:22:32;100547.06;;;20.58;79.81
37852;BME280;23691;52.486;4.650;2023-07-31T06:25:02;100546.09;;;20.65;79.69
37852;BME280;23691;52.486;4.650;2023-07-31T06:27:28;100538.63;;;20.72;79.35
37852;BME280;23691;52.486;4.650;2023-07-31T06:29:54;100540.91;;;20.75;79.25
37852;BME280;23691;52.486;4.650;2023-07-31T06:32:19;100538.75;;;20.77;79.03
37852;BME280;23691;52.486;4.650;2023-07-31T06:34:44;100541.00;;;20.80;78.93
37852;BME280;23691;52.486;4.650;2023-07-31T06:37:16;100548.09;;;20.81;78.63
37852;BME280;23691;52.486;4.650;2023-07-31T06:39:41;100532.13;;;20.85;78.51
37852;BME280;23691;52.486;4.650;2023-07-31T06:42:07;100526.69;;;20.85;78.29
37852;BME280;23691;52.486;4.650;2023-07-31T06:44:32;100525.38;;;20.87;78.37
37852;BME280;23691;52.486;4.650;2023-07-31T06:46:57;100524.78;;;20.97;78.08
37852;BME280;23691;52.486;4.650;2023-07-31T06:49:23;100523.91;;;21.08;77.85
37852;BME280;23691;52.486;4.650;2023-07-31T06:51:51;100516.41;;;21.15;77.77
37852;BME280;23691;52.486;4.650;2023-07-31T06:54:16;100525.31;;;21.11;77.88
37852;BME280;23691;52.486;4.650;2023-07-31T06:56:42;100525.31;;;21.11;77.59
37852;BME280;23691;52.486;4.650;2023-07-31T06:59:07;100517.16;;;21.11;77.55
37852;BME280;23691;52.486;4.650;2023-07-31T07:01:33;100518.47;;;21.08;77.89
37852;BME280;23691;52.486;4.650;2023-07-31T07:03:58;100511.94;;;21.09;77.77
37852;BME280;23691;52.486;4.650;2023-07-31T07:06:23;100518.22;;;21.10;77.76
37852;BME280;23691;52.486;4.650;2023-07-31T07:08:49;100511.84;;;21.04;78.19
37852;BME280;23691;52.486;4.650;2023-07-31T07:11:14;100517.28;;;21.04;78.15
37852;BME280;23691;52.486;4.650;2023-07-31T07:13:40;100520.00;;;21.04;78.15
37852;BME280;23691;52.486;4.650;2023-07-31T07:16:05;100518.47;;;21.08;77.99
37852;BME280;23691;52.486;4.650;2023-07-31T07:18:30;100520.44;;;21.13;77.89
37852;BME280;23691;52.486;4.650;2023-07-31T07:20:56;100522.59;;;21.11;77.80
37852;BME280;23691;52.486;4.650;2023-07-31T07:23:23;100519.03;;;21.10;77.52
37852;BME280;23691;52.486;4.650;2023-07-31T07:25:51;100518.34;;;21.03;77.96
37852;BME280;23691;52.486;4.650;2023-07-31T07:28:16;100511.59;;;21.06;77.88
37852;BME280;23691;52.486;4.650;2023-07-31T07:30:42;100508.41;;;21.09;77.85
37852;BME280;23691;52.486;4.650;2023-07-31T07:33:07;100520.53;;;21.18;77.50
37852;BME280;23691;52.486;4.650;2023-07-31T07:35:34;100518.59;;;21.30;77.10
37852;BME280;23691;52.486;4.650;2023-07-31T07:38:00;100509.59;;;21.41;77.03
37852;BME280;23691;52.486;4.650;2023-07-31T07:40:28;100514.78;;;21.43;77.03
37852;BME280;23691;52.486;4.650;2023-07-31T07:42:53;100515.97;;;21.47;76.98
37852;BME280;23691;52.486;4.650;2023-07-31T07:45:42;100522.00;;;21.49;76.94
37852;BME280;23691;52.486;4.650;2023-07-31T07:52:06;100511.19;;;21.54;76.97
37852;BME280;23691;52.486;4.650;2023-07-31T07:54:35;100512.59;;;21.57;76.77
37852;BME280;23691;52.486;4.650;2023-07-31T07:57:00;100510.28;;;21.65;76.83
37852;BME280;23691;52.486;4.650;2023-07-31T07:59:26;100502.78;;;21.73;76.19
37852;BME280;23691;52.486;4.650;2023-07-31T08:01:54;100501.81;;;21.79;76.19
37852;BME280;23691;52.486;4.650;2023-07-31T08:04:27;100503.88;;;21.89;76.09
37852;BME280;23691;52.486;4.650;2023-07-31T08:06:56;100502.13;;;21.82;75.71
37852;BME280;23691;52.486;4.650;2023-07-31T08:09:21;100482.56;;;21.85;76.14
37852;BME280;23691;52.486;4.650;2023-07-31T08:11:47;100497.91;;;21.92;75.98
37852;BME280;23691;52.486;4.650;2023-07-31T08:14:13;100484.53;;;22.07;75.11
37852;BME280;23691;52.486;4.650;2023-07-31T08:16:39;100494.94;;;22.10;74.89
37852;BME280;23691;52.486;4.650;2023-07-31T08:19:04;100493.22;;;22.21;74.28
37852;BME280;23691;52.486;4.650;2023-07-31T08:21:33;100496.78;;;22.21;74.55
37852;BME280;23691;52.486;4.650;2023-07-31T08:23:59;100503.19;;;22.15;74.17
37852;BME280;23691;52.486;4.650;2023-07-31T08:26:24;100487.78;;;22.21;74.08
37852;BME280;23691;52.486;4.650;2023-07-31T08:28:49;100490.88;;;22.29;74.16
37852;BME280;23691;52.486;4.650;2023-07-31T08:31:15;100486.50;;;22.45;73.41
37852;BME280;23691;52.486;4.650;2023-07-31T08:33:40;100485.41;;;22.46;73.30
37852;BME280;23691;52.486;4.650;2023-07-31T08:36:11;100483.66;;;22.57;73.47
37852;BME280;23691;52.486;4.650;2023-07-31T08:38:41;100495.94;;;22.60;73.28
37852;BME280;23691;52.486;4.650;2023-07-31T08:41:07;100483.31;;;22.54;73.23
37852;BME280;23691;52.486;4.650;2023-07-31T08:43:32;100486.56;;;22.50;73.79
37852;BME280;23691;52.486;4.650;2023-07-31T08:46:07;100483.38;;;22.59;73.43
37852;BME280;23691;52.486;4.650;2023-07-31T08:48:35;100487.91;;;22.70;73.20
37852;BME280;23691;52.486;4.650;2023-07-31T08:51:02;100485.00;;;22.77;72.90
37852;BME280;23691;52.486;4.650;2023-07-31T08:53:27;100484.25;;;22.86;72.55
37852;BME280;23691;52.486;4.650;2023-07-31T08:55:53;100488.94;;;22.91;72.13
37852;BME280;23691;52.486;4.650;2023-07-31T08:58:20;100486.09;;;22.81;72.21
37852;BME280;23691;52.486;4.650;2023-07-31T09:00:46;100481.63;;;22.91;71.77
37852;BME280;23691;52.486;4.650;2023-07-31T09:03:17;100478.38;;;22.94;71.93
37852;BME280;23691;52.486;4.650;2023-07-31T09:05:46;100483.63;;;23.01;71.43
37852;BME280;23691;52.486;4.650;2023-07-31T09:08:13;100468.69;;;23.04;71.25
37852;BME280;23691;52.486;4.650;2023-07-31T09:10:43;100471.66;;;23.02;71.50
37852;BME280;23691;52.486;4.650;2023-07-31T09:13:14;100467.53;;;23.00;71.43
37852;BME280;23691;52.486;4.650;2023-07-31T09:15:46;100474.19;;;23.09;71.22
37852;BME280;23691;52.486;4.650;2023-07-31T09:18:11;100480.34;;;23.21;70.72
37852;BME280;23691;52.486;4.650;2023-07-31T09:20:37;100467.81;;;23.25;70.42
37852;BME280;23691;52.486;4.650;2023-07-31T09:23:13;100478.53;;;23.32;70.18
37852;BME280;23691;52.486;4.650;2023-07-31T09:25:46;100468.22;;;23.39;70.03
37852;BME280;23691;52.486;4.650;2023-07-31T09:28:11;100466.31;;;23.40;69.72
37852;BME280;23691;52.486;4.650;2023-07-31T09:30:49;100466.22;;;23.29;69.84
37852;BME280;23691;52.486;4.650;2023-07-31T09:33:15;100486.84;;;23.20;69.87
37852;BME280;23691;52.486;4.650;2023-07-31T09:35:47;100482.34;;;23.31;69.68
37852;BME280;23691;52.486;4.650;2023-07-31T09:38:18;100487.84;;;23.36;69.23
37852;BME280;23691;52.486;4.650;2023-07-31T09:40:47;100479.38;;;23.38;69.19
37852;BME280;23691;52.486;4.650;2023-07-31T09:43:21;100469.50;;;23.31;69.31
37852;BME280;23691;52.486;4.650;2023-07-31T09:45:55;100464.06;;;23.31;69.72
37852;BME280;23691;52.486;4.650;2023-07-31T09:48:28;100473.00;;;23.27;70.24
37852;BME280;23691;52.486;4.650;2023-07-31T09:50:55;100479.03;;;23.29;70.34
37852;BME280;23691;52.486;4.650;2023-07-31T09:53:28;100465.97;;;23.31;70.25
37852;BME280;23691;52.486;4.650;2023-07-31T09:55:58;100471.09;;;23.27;70.36
37852;BME280;23691;52.486;4.650;2023-07-31T09:58:27;100474.31;;;23.19;70.88
37852;BME280;23691;52.486;4.650;2023-07-31T10:00:57;100473.78;;;23.22;70.58
37852;BME280;23691;52.486;4.650;2023-07-31T10:03:24;100468.84;;;23.19;70.21
37852;BME280;23691;52.486;4.650;2023-07-31T10:05:55;100475.03;;;23.09;70.40
37852;BME280;23691;52.486;4.650;2023-07-31T10:08:21;100475.53;;;22.84;71.02
37852;BME280;23691;52.486;4.650;2023-07-31T10:10:48;100478.69;;;22.76;71.68
37852;BME280;23691;52.486;4.650;2023-07-31T10:13:15;100476.72;;;22.71;71.90
37852;BME280;23691;52.486;4.650;2023-07-31T10:15:41;100475.88;;;22.93;71.34
37852;BME280;23691;52.486;4.650;2023-07-31T10:18:08;100476.13;;;23.13;70.71
37852;BME280;23691;52.486;4.650;2023-07-31T10:23:12;100472.59;;;23.13;70.92
37852;BME280;23691;52.486;4.650;2023-07-31T10:25:38;100470.13;;;23.11;70.80
37852;BME280;23691;52.486;4.650;2023-07-31T10:28:04;100469.22;;;23.33;70.28
37852;BME280;23691;52.486;4.650;2023-07-31T10:30:32;100470.06;;;23.61;69.61
37852;BME280;23691;52.486;4.650;2023-07-31T10:33:02;100479.28;;;23.87;68.84
37852;BME280;23691;52.486;4.650;2023-07-31T10:35:28;100488.16;;;24.04;68.33
37852;BME280;23691;52.486;4.650;2023-07-31T10:37:53;100474.56;;;24.14;67.84
37852;BME280;23691;52.486;4.650;2023-07-31T10:40:26;100495.13;;;24.22;67.04
37852;BME280;23691;52.486;4.650;2023-07-31T10:42:56;100477.59;;;24.18;66.77
37852;BME280;23691;52.486;4.650;2023-07-31T10:45:44;100474.31;;;24.16;66.53
37852;BME280;23691;52.486;4.650;2023-07-31T10:48:20;100477.00;;;24.11;66.90
37852;BME280;23691;52.486;4.650;2023-07-31T10:50:49;100476.72;;;24.07;66.71
37852;BME280;23691;52.486;4.650;2023-07-31T10:53:33;100472.81;;;23.98;66.83
37852;BME280;23691;52.486;4.650;2023-07-31T10:56:03;100471.72;;;23.99;67.01
37852;BME280;23691;52.486;4.650;2023-07-31T10:58:36;100485.94;;;24.01;66.83
37852;BME280;23691;52.486;4.650;2023-07-31T11:01:28;100481.88;;;24.04;66.65
37852;BME280;23691;52.486;4.650;2023-07-31T11:04:26;100479.19;;;24.14;66.67
37852;BME280;23691;52.486;4.650;2023-07-31T11:07:04;100472.31;;;24.06;66.94
37852;BME280;23691;52.486;4.650;2023-07-31T11:09:56;100470.66;;;24.00;67.31
37852;BME280;23691;52.486;4.650;2023-07-31T11:12:25;100477.38;;;23.87;67.67
37852;BME280;23691;52.486;4.650;2023-07-31T11:14:58;100471.72;;;23.99;67.36
37852;BME280;23691;52.486;4.650;2023-07-31T11:17:36;100474.50;;;24.04;67.09
37852;BME280;23691;52.486;4.650;2023-07-31T11:20:36;100466.44;;;24.25;66.51
37852;BME280;23691;52.486;4.650;2023-07-31T11:23:16;100453.72;;;24.03;67.24
37852;BME280;23691;52.486;4.650;2023-07-31T11:26:06;100443.22;;;23.85;67.83
37852;BME280;23691;52.486;4.650;2023-07-31T11:28:58;100442.00;;;23.70;67.82
37852;BME280;23691;52.486;4.650;2023-07-31T11:31:43;100445.97;;;23.90;67.14
37852;BME280;23691;52.486;4.650;2023-07-31T11:34:23;100443.06;;;24.02;66.72
37852;BME280;23691;52.486;4.650;2023-07-31T11:37:05;100441.50;;;24.16;66.61
37852;BME280;23691;52.486;4.650;2023-07-31T11:39:58;100439.38;;;24.23;66.15
37852;BME280;23691;52.486;4.650;2023-07-31T11:42:29;100441.06;;;24.34;66.01
37852;BME280;23691;52.486;4.650;2023-07-31T11:45:35;100445.50;;;24.46;65.61
37852;BME280;23691;52.486;4.650;2023-07-31T11:48:03;100453.75;;;24.56;65.53
37852;BME280;23691;52.486;4.650;2023-07-31T11:51:03;100464.97;;;24.54;65.21
37852;BME280;23691;52.486;4.650;2023-07-31T12:02:46;100465.94;;;24.33;65.45
37852;BME280;23691;52.486;4.650;2023-07-31T12:05:19;100463.00;;;24.45;65.19
37852;BME280;23691;52.486;4.650;2023-07-31T12:07:54;100466.34;;;24.52;64.90
37852;BME280;23691;52.486;4.650;2023-07-31T12:13:19;100459.34;;;24.87;63.93
37852;BME280;23691;52.486;4.650;2023-07-31T12:15:54;100445.69;;;24.97;63.63
37852;BME280;23691;52.486;4.650;2023-07-31T12:18:44;100438.88;;;24.99;63.51
37852;BME280;23691;52.486;4.650;2023-07-31T12:21:17;100434.50;;;25.09;63.00
37852;BME280;23691;52.486;4.650;2023-07-31T12:24:08;100428.75;;;25.15;63.09
37852;BME280;23691;52.486;4.650;2023-07-31T12:26:47;100439.22;;;25.23;62.55
37852;BME280;23691;52.486;4.650;2023-07-31T12:29:15;100435.66;;;25.23;62.44
37852;BME280;23691;52.486;4.650;2023-07-31T12:31:54;100434.22;;;25.00;62.77
37852;BME280;23691;52.486;4.650;2023-07-31T12:34:42;100434.22;;;25.00;62.80
37852;BME280;23691;52.486;4.650;2023-07-31T12:37:14;100425.97;;;24.79;63.02
37852;BME280;23691;52.486;4.650;2023-07-31T12:39:43;100426.44;;;24.66;63.20
37852;BME280;23691;52.486;4.650;2023-07-31T12:42:21;100425.13;;;24.74;63.08
37852;BME280;23691;52.486;4.650;2023-07-31T12:45:11;100420.75;;;24.78;62.99
37852;BME280;23691;52.486;4.650;2023-07-31T12:47:40;100408.97;;;24.72;62.89
37852;BME280;23691;52.486;4.650;2023-07-31T12:50:20;100423.75;;;24.76;63.04
37852;BME280;23691;52.486;4.650;2023-07-31T12:52:59;100427.59;;;24.91;63.14
37852;BME280;23691;52.486;4.650;2023-07-31T12:55:42;100441.56;;;24.79;63.03
37852;BME280;23691;52.486;4.650;2023-07-31T12:58:27;100440.38;;;24.59;63.49
37852;BME280;23691;52.486;4.650;2023-07-31T13:00:56;100438.50;;;24.65;63.29
37852;BME280;23691;52.486;4.650;2023-07-31T13:03:31;100438.81;;;24.79;63.18
37852;BME280;23691;52.486;4.650;2023-07-31T13:06:10;100421.56;;;24.78;63.29
37852;BME280;23691;52.486;4.650;2023-07-31T13:08:41;100423.50;;;24.93;63.04
37852;BME280;23691;52.486;4.650;2023-07-31T13:11:44;100417.78;;;24.95;63.11
37852;BME280;23691;52.486;4.650;2023-07-31T13:14:18;100415.03;;;24.90;63.42
37852;BME280;23691;52.486;4.650;2023-07-31T13:16:51;100406.56;;;24.91;63.30
37852;BME280;23691;52.486;4.650;2023-07-31T13:19:16;100408.19;;;24.92;62.94
37852;BME280;23691;52.486;4.650;2023-07-31T13:21:42;100413.09;;;24.85;63.25
37852;BME280;23691;52.486;4.650;2023-07-31T13:24:14;100408.97;;;24.72;63.41
37852;BME280;23691;52.486;4.650;2023-07-31T13:26:42;100411.72;;;24.72;63.19
37852;BME280;23691;52.486;4.650;2023-07-31T13:29:14;100402.38;;;24.63;63.28
37852;BME280;23691;52.486;4.650;2023-07-31T13:31:39;100398.50;;;24.54;63.37
37852;BME280;23691;52.486;4.650;2023-07-31T13:34:04;100397.88;;;24.41;63.33
37852;BME280;23691;52.486;4.650;2023-07-31T13:36:30;100405.81;;;24.38;63.74
37852;BME280;23691;52.486;4.650;2023-07-31T13:38:55;100386.88;;;24.26;64.25
37852;BME280;23691;52.486;4.650;2023-07-31T13:41:20;100390.97;;;24.18;64.34
37852;BME280;23691;52.486;4.650;2023-07-31T13:43:46;100386.06;;;24.20;64.17
37852;BME280;23691;52.486;4.650;2023-07-31T13:46:11;100399.97;;;24.19;64.27
37852;BME280;23691;52.486;4.650;2023-07-31T13:48:37;100390.63;;;24.05;64.01
37852;BME280;23691;52.486;4.650;2023-07-31T13:51:02;100390.81;;;23.88;64.80
37852;BME280;23691;52.486;4.650;2023-07-31T13:53:27;100380.09;;;23.81;65.30
37852;BME280;23691;52.486;4.650;2023-07-31T13:55:53;100377.44;;;23.91;64.95
37852;BME280;23691;52.486;4.650;2023-07-31T13:58:18;100374.06;;;23.79;65.35
37852;BME280;23691;52.486;4.650;2023-07-31T14:00:44;100373.78;;;23.75;65.45
37852;BME280;23691;52.486;4.650;2023-07-31T14:03:09;100369.53;;;23.57;65.92
37852;BME280;23691;52.486;4.650;2023-07-31T14:05:35;100369.47;;;23.47;66.39
37852;BME280;23691;52.486;4.650;2023-07-31T14:08:09;100379.72;;;23.35;66.89
37852;BME280;23691;52.486;4.650;2023-07-31T14:10:40;100385.75;;;23.37;67.01
37852;BME280;23691;52.486;4.650;2023-07-31T14:13:06;100376.84;;;23.47;67.09
37852;BME280;23691;52.486;4.650;2023-07-31T14:15:31;100381.66;;;23.34;67.48
37852;BME280;23691;52.486;4.650;2023-07-31T14:17:57;100371.44;;;23.20;67.79
37852;BME280;23691;52.486;4.650;2023-07-31T14:20:22;100373.88;;;23.16;68.04
37852;BME280;23691;52.486;4.650;2023-07-31T14:22:48;100373.34;;;23.19;68.02
37852;BME280;23691;52.486;4.650;2023-07-31T14:25:13;100372.00;;;23.22;68.20
37852;BME280;23691;52.486;4.650;2023-07-31T14:27:39;100366.78;;;23.20;68.27
37852;BME280;23691;52.486;4.650;2023-07-31T14:30:04;100360.22;;;23.16;68.24
37852;BME280;23691;52.486;4.650;2023-07-31T14:37:41;100341.69;;;23.55;67.01
37852;BME280;23691;52.486;4.650;2023-07-31T14:40:13;100346.53;;;23.43;67.55
37852;BME280;23691;52.486;4.650;2023-07-31T14:42:39;100339.88;;;23.34;67.44
37852;BME280;23691;52.486;4.650;2023-07-31T14:45:06;100327.81;;;23.25;67.59
37852;BME280;23691;52.486;4.650;2023-07-31T14:47:32;100334.59;;;23.22;67.72
37852;BME280;23691;52.486;4.650;2023-07-31T14:49:59;100324.97;;;23.09;68.24
37852;BME280;23691;52.486;4.650;2023-07-31T14:52:24;100331.44;;;23.03;68.28
37852;BME280;23691;52.486;4.650;2023-07-31T14:54:50;100324.59;;;23.01;68.19
37852;BME280;23691;52.486;4.650;2023-07-31T14:57:16;100316.34;;;22.96;68.49
37852;BME280;23691;52.486;4.650;2023-07-31T14:59:41;100328.78;;;22.86;68.68
37852;BME280;23691;52.486;4.650;2023-07-31T15:02:08;100324.38;;;22.80;68.67
37852;BME280;23691;52.486;4.650;2023-07-31T15:04:36;100318.31;;;22.73;69.29
37852;BME280;23691;52.486;4.650;2023-07-31T15:07:05;100321.56;;;22.70;69.14
37852;BME280;23691;52.486;4.650;2023-07-31T15:09:30;100304.06;;;22.66;69.44
37852;BME280;23691;52.486;4.650;2023-07-31T15:11:56;100298.22;;;22.79;69.90
37852;BME280;23691;52.486;4.650;2023-07-31T15:14:22;100302.31;;;22.82;69.78
37852;BME280;23691;52.486;4.650;2023-07-31T15:16:48;100290.84;;;22.80;69.82
37852;BME280;23691;52.486;4.650;2023-07-31T15:19:14;100279.38;;;22.78;70.25
37852;BME280;23691;52.486;4.650;2023-07-31T15:21:39;100279.38;;;22.78;69.89
37852;BME280;23691;52.486;4.650;2023-07-31T15:24:07;100271.75;;;22.80;70.35
37852;BME280;23691;52.486;4.650;2023-07-31T15:26:33;100273.66;;;22.79;70.52
37852;BME280;23691;52.486;4.650;2023-07-31T15:29:04;100269.84;;;22.80;70.27
37852;BME280;23691;52.486;4.650;2023-07-31T15:31:40;100272.53;;;22.75;70.01
37852;BME280;23691;52.486;4.650;2023-07-31T15:34:06;100272.50;;;22.70;70.29
37852;BME280;23691;52.486;4.650;2023-07-31T15:36:32;100268.09;;;22.69;70.28
37852;BME280;23691;52.486;4.650;2023-07-31T15:38:57;100259.91;;;22.69;70.11
37852;BME280;23691;52.486;4.650;2023-07-31T15:41:23;100256.66;;;22.67;69.84
37852;BME280;23691;52.486;4.650;2023-07-31T15:43:49;100255.53;;;22.63;70.02
37852;BME280;23691;52.486;4.650;2023-07-31T15:46:14;100252.44;;;22.54;70.40
37852;BME280;23691;52.486;4.650;2023-07-31T15:48:40;100250.22;;;22.51;70.46
37852;BME280;23691;52.486;4.650;2023-07-31T15:51:05;100245.91;;;22.55;70.42
37852;BME280;23691;52.486;4.650;2023-07-31T15:53:31;100250.31;;;22.61;70.46
37852;BME280;23691;52.486;4.650;2023-07-31T15:55:56;100249.50;;;22.61;70.17
37852;BME280;23691;52.486;4.650;2023-07-31T15:58:22;100252.22;;;22.61;70.18
37852;BME280;23691;52.486;4.650;2023-07-31T16:00:47;100244.81;;;22.56;70.19
37852;BME280;23691;52.486;4.650;2023-07-31T16:03:13;100240.13;;;22.51;70.71
37852;BME280;23691;52.486;4.650;2023-07-31T16:05:38;100240.72;;;22.54;70.59
37852;BME280;23691;52.486;4.650;2023-07-31T16:08:04;100250.78;;;22.53;70.93